sensor_id;sensor_type;location;lat;lon;timestamp;P1;durP1;ratioP1;P2;durP2;ratioP2
54909;SDS011;63189;51.240;9.964;2024-03-08T00:01:30;31.05;;;20.25;;
54909;SDS011;63189;51.240;9.964;2024-03-08T00:03:55;37.85;;;21.73;;
54909;SDS011;63189;51.240;9.964;2024-03-08T00:06:21;35.80;;;20.95;;
54909;SDS011;63189;51.240;9.964;2024-03-08T00:08:46;28.92;;;18.70;;
54909;SDS011;63189;51.240;9.964;2024-03-08T00:11:11;32.53;;;21.45;;
54909;SDS011;63189;51.240;9.964;2024-03-08T00:13:37;28.17;;;17.63;;
54909;SDS011;63189;51.240;9.964;2024-03-08T00:16:02;38.05;;;22.05;;
54909;SDS011;63189;51.240;9.964;2024-03-08T00:18:28;33.40;;;21.95;;
54909;SDS011;63189;51.240;9.964;2024-03-08T00:20:53;31.08;;;19.63;;
54909;SDS011;63189;51.240;9.964;2024-03-08T00:23:19;31.45;;;18.88;;
54909;SDS011;63189;51.240;9.964;2024-03-08T00:25:44;34.58;;;21.42;;
54909;SDS011;63189;51.240;9.964;2024-03-08T00:28:09;33.63;;;20.80;;
54909;SDS011;63189;51.240;9.964;2024-03-08T00:30:38;32.67;;;20.55;;
54909;SDS011;63189;51.240;9.964;2024-03-08T00:33:04;34.15;;;21.55;;
54909;SDS011;63189;51.240;9.964;2024-03-08T00:35:30;28.90;;;18.75;;
54909;SDS011;63189;51.240;9.964;2024-03-08T00:37:55;33.28;;;21.10;;
54909;SDS011;63189;51.240;9.964;2024-03-08T00:40:21;39.13;;;22.77;;
54909;SDS011;63189;51.240;9.964;2024-03-08T00:42:47;35.08;;;21.38;;
54909;SDS011;63189;51.240;9.964;2024-03-08T00:45:13;32.67;;;20.42;;
54909;SDS011;63189;51.240;9.964;2024-03-08T00:47:38;33.58;;;19.52;;
54909;SDS011;63189;51.240;9.964;2024-03-08T00:50:04;32.63;;;20.38;;
54909;SDS011;63189;51.240;9.964;2024-03-08T00:52:29;32.03;;;20.35;;
54909;SDS011;63189;51.240;9.964;2024-03-08T00:54:55;33.30;;;20.73;;
54909;SDS011;63189;51.240;9.964;2024-03-08T00:57:21;32.78;;;20.63;;
54909;SDS011;63189;51.240;9.964;2024-03-08T00:59:47;32.10;;;19.95;;
54909;SDS011;63189;51.240;9.964;2024-03-08T01:02:12;35.45;;;21.90;;
54909;SDS011;63189;51.240;9.964;2024-03-08T01:04:37;32.08;;;21.27;;
54909;SDS011;63189;51.240;9.964;2024-03-08T01:07:03;34.20;;;21.27;;
54909;SDS011;63189;51.240;9.964;2024-03-08T01:09:28;37.47;;;23.13;;
54909;SDS011;63189;51.240;9.964;2024-03-08T01:11:54;33.25;;;20.42;;
54909;SDS011;63189;51.240;9.964;2024-03-08T01:14:23;31.10;;;20.20;;
54909;SDS011;63189;51.240;9.964;2024-03-08T01:16:50;33.15;;;19.80;;
54909;SDS011;63189;51.240;9.964;2024-03-08T01:19:16;31.50;;;20.00;;
54909;SDS011;63189;51.240;9.964;2024-03-08T01:21:41;32.33;;;19.95;;
54909;SDS011;63189;51.240;9.964;2024-03-08T01:24:07;32.35;;;19.67;;
54909;SDS011;63189;51.240;9.964;2024-03-08T01:26:33;31.20;;;20.02;;
54909;SDS011;63189;51.240;9.964;2024-03-08T01:29:02;34.85;;;22.35;;
54909;SDS011;63189;51.240;9.964;2024-03-08T01:31:28;34.10;;;21.00;;
54909;SDS011;63189;51.240;9.964;2024-03-08T01:33:55;32.63;;;20.20;;
54909;SDS011;63189;51.240;9.964;2024-03-08T01:36:21;34.22;;;21.90;;
54909;SDS011;63189;51.240;9.964;2024-03-08T01:38:46;29.80;;;18.95;;
54909;SDS011;63189;51.240;9.964;2024-03-08T01:41:11;40.63;;;24.95;;
54909;SDS011;63189;51.240;9.964;2024-03-08T01:43:38;29.20;;;17.50;;
54909;SDS011;63189;51.240;9.964;2024-03-08T01:46:04;38.63;;;23.92;;
54909;SDS011;63189;51.240;9.964;2024-03-08T01:48:30;37.00;;;22.10;;
54909;SDS011;63189;51.240;9.964;2024-03-08T01:50:56;34.22;;;21.02;;
54909;SDS011;63189;51.240;9.964;2024-03-08T01:53:23;32.53;;;21.05;;
54909;SDS011;63189;51.240;9.964;2024-03-08T01:55:50;35.15;;;21.88;;
54909;SDS011;63189;51.240;9.964;2024-03-08T01:58:19;35.95;;;21.63;;
54909;SDS011;63189;51.240;9.964;2024-03-08T02:00:47;35.47;;;21.80;;
54909;SDS011;63189;51.240;9.964;2024-03-08T02:03:14;36.40;;;21.63;;
54909;SDS011;63189;51.240;9.964;2024-03-08T02:05:40;36.00;;;21.40;;
54909;SDS011;63189;51.240;9.964;2024-03-08T02:08:06;39.95;;;22.52;;
54909;SDS011;63189;51.240;9.964;2024-03-08T02:10:37;33.03;;;21.30;;
54909;SDS011;63189;51.240;9.964;2024-03-08T02:13:03;37.13;;;22.02;;
54909;SDS011;63189;51.240;9.964;2024-03-08T02:16:11;33.83;;;21.27;;
54909;SDS011;63189;51.240;9.964;2024-03-08T02:18:21;38.30;;;20.95;;
54909;SDS011;63189;51.240;9.964;2024-03-08T02:23:23;32.95;;;20.67;;
54909;SDS011;63189;51.240;9.964;2024-03-08T02:25:52;40.53;;;25.08;;
54909;SDS011;63189;51.240;9.964;2024-03-08T02:28:19;39.65;;;24.35;;
54909;SDS011;63189;51.240;9.964;2024-03-08T02:30:45;37.10;;;22.77;;
54909;SDS011;63189;51.240;9.964;2024-03-08T02:33:14;38.45;;;23.27;;
54909;SDS011;63189;51.240;9.964;2024-03-08T02:35:43;39.83;;;24.77;;
54909;SDS011;63189;51.240;9.964;2024-03-08T02:38:15;31.08;;;18.95;;
54909;SDS011;63189;51.240;9.964;2024-03-08T02:40:43;33.80;;;21.13;;
54909;SDS011;63189;51.240;9.964;2024-03-08T02:43:09;39.13;;;25.35;;
54909;SDS011;63189;51.240;9.964;2024-03-08T02:45:35;33.78;;;20.55;;
54909;SDS011;63189;51.240;9.964;2024-03-08T02:48:04;33.25;;;19.40;;
54909;SDS011;63189;51.240;9.964;2024-03-08T02:50:31;30.25;;;19.35;;
54909;SDS011;63189;51.240;9.964;2024-03-08T02:52:57;41.45;;;23.27;;
54909;SDS011;63189;51.240;9.964;2024-03-08T02:55:22;36.67;;;21.30;;
54909;SDS011;63189;51.240;9.964;2024-03-08T02:57:50;34.38;;;21.85;;
54909;SDS011;63189;51.240;9.964;2024-03-08T03:00:16;36.80;;;21.92;;
54909;SDS011;63189;51.240;9.964;2024-03-08T03:02:44;29.60;;;18.23;;
54909;SDS011;63189;51.240;9.964;2024-03-08T03:05:09;31.50;;;20.13;;
54909;SDS011;63189;51.240;9.964;2024-03-08T03:07:36;36.33;;;22.27;;
54909;SDS011;63189;51.240;9.964;2024-03-08T03:10:02;36.42;;;21.35;;
54909;SDS011;63189;51.240;9.964;2024-03-08T03:12:28;35.70;;;21.63;;
54909;SDS011;63189;51.240;9.964;2024-03-08T03:14:54;38.58;;;22.98;;
54909;SDS011;63189;51.240;9.964;2024-03-08T03:17:19;37.97;;;23.92;;
54909;SDS011;63189;51.240;9.964;2024-03-08T03:19:47;31.55;;;19.80;;
54909;SDS011;63189;51.240;9.964;2024-03-08T03:22:13;33.38;;;20.27;;
54909;SDS011;63189;51.240;9.964;2024-03-08T03:24:38;41.28;;;23.48;;
54909;SDS011;63189;51.240;9.964;2024-03-08T03:27:04;36.05;;;20.85;;
54909;SDS011;63189;51.240;9.964;2024-03-08T03:29:36;33.47;;;20.75;;
54909;SDS011;63189;51.240;9.964;2024-03-08T03:32:07;34.15;;;21.17;;
54909;SDS011;63189;51.240;9.964;2024-03-08T03:34:35;32.97;;;19.60;;
54909;SDS011;63189;51.240;9.964;2024-03-08T03:37:01;31.08;;;20.25;;
54909;SDS011;63189;51.240;9.964;2024-03-08T03:39:28;35.80;;;21.63;;
54909;SDS011;63189;51.240;9.964;2024-03-08T03:41:57;35.10;;;21.75;;
54909;SDS011;63189;51.240;9.964;2024-03-08T03:44:23;32.67;;;19.80;;
54909;SDS011;63189;51.240;9.964;2024-03-08T03:46:48;33.20;;;21.08;;
54909;SDS011;63189;51.240;9.964;2024-03-08T03:49:15;35.10;;;22.00;;
54909;SDS011;63189;51.240;9.964;2024-03-08T03:51:42;32.90;;;19.52;;
54909;SDS011;63189;51.240;9.964;2024-03-08T03:54:07;31.75;;;20.10;;
54909;SDS011;63189;51.240;9.964;2024-03-08T03:56:32;31.08;;;19.38;;
54909;SDS011;63189;51.240;9.964;2024-03-08T03:58:58;31.60;;;20.25;;
54909;SDS011;63189;51.240;9.964;2024-03-08T04:01:23;31.20;;;19.98;;
54909;SDS011;63189;51.240;9.964;2024-03-08T04:03:49;34.28;;;20.77;;
54909;SDS011;63189;51.240;9.964;2024-03-08T04:06:14;33.97;;;20.63;;
54909;SDS011;63189;51.240;9.964;2024-03-08T04:08:40;33.90;;;19.77;;
54909;SDS011;63189;51.240;9.964;2024-03-08T04:11:06;31.50;;;20.48;;
54909;SDS011;63189;51.240;9.964;2024-03-08T04:13:32;29.80;;;18.58;;
54909;SDS011;63189;51.240;9.964;2024-03-08T04:15:57;31.20;;;17.77;;
54909;SDS011;63189;51.240;9.964;2024-03-08T04:18:23;34.25;;;20.70;;
54909;SDS011;63189;51.240;9.964;2024-03-08T04:20:48;35.97;;;21.85;;
54909;SDS011;63189;51.240;9.964;2024-03-08T04:23:15;35.33;;;21.25;;
54909;SDS011;63189;51.240;9.964;2024-03-08T04:25:41;30.33;;;19.15;;
54909;SDS011;63189;51.240;9.964;2024-03-08T04:28:07;29.67;;;19.05;;
54909;SDS011;63189;51.240;9.964;2024-03-08T04:30:35;36.17;;;21.70;;
54909;SDS011;63189;51.240;9.964;2024-03-08T04:33:02;36.97;;;22.08;;
54909;SDS011;63189;51.240;9.964;2024-03-08T04:35:28;33.47;;;21.65;;
54909;SDS011;63189;51.240;9.964;2024-03-08T04:37:54;34.45;;;20.17;;
54909;SDS011;63189;51.240;9.964;2024-03-08T04:40:19;35.90;;;22.40;;
54909;SDS011;63189;51.240;9.964;2024-03-08T04:42:44;36.47;;;21.98;;
54909;SDS011;63189;51.240;9.964;2024-03-08T04:45:10;36.80;;;22.33;;
54909;SDS011;63189;51.240;9.964;2024-03-08T04:47:38;34.08;;;21.60;;
54909;SDS011;63189;51.240;9.964;2024-03-08T04:50:04;34.42;;;21.23;;
54909;SDS011;63189;51.240;9.964;2024-03-08T04:52:30;37.58;;;22.80;;
54909;SDS011;63189;51.240;9.964;2024-03-08T04:54:55;32.13;;;20.88;;
54909;SDS011;63189;51.240;9.964;2024-03-08T04:57:21;38.92;;;22.90;;
54909;SDS011;63189;51.240;9.964;2024-03-08T04:59:47;34.55;;;21.55;;
54909;SDS011;63189;51.240;9.964;2024-03-08T05:02:12;29.80;;;19.55;;
54909;SDS011;63189;51.240;9.964;2024-03-08T05:04:39;35.92;;;22.13;;
54909;SDS011;63189;51.240;9.964;2024-03-08T05:07:04;37.33;;;21.70;;
54909;SDS011;63189;51.240;9.964;2024-03-08T05:09:30;34.92;;;22.55;;
54909;SDS011;63189;51.240;9.964;2024-03-08T05:11:56;35.28;;;20.73;;
54909;SDS011;63189;51.240;9.964;2024-03-08T05:14:24;34.55;;;21.77;;
54909;SDS011;63189;51.240;9.964;2024-03-08T05:16:50;36.15;;;21.73;;
54909;SDS011;63189;51.240;9.964;2024-03-08T05:19:19;41.38;;;25.17;;
54909;SDS011;63189;51.240;9.964;2024-03-08T05:21:45;36.92;;;22.55;;
54909;SDS011;63189;51.240;9.964;2024-03-08T05:24:11;35.83;;;22.13;;
54909;SDS011;63189;51.240;9.964;2024-03-08T05:26:38;36.55;;;21.85;;
54909;SDS011;63189;51.240;9.964;2024-03-08T05:29:04;43.22;;;25.27;;
54909;SDS011;63189;51.240;9.964;2024-03-08T05:31:30;35.28;;;21.45;;
54909;SDS011;63189;51.240;9.964;2024-03-08T05:34:02;41.23;;;25.40;;
54909;SDS011;63189;51.240;9.964;2024-03-08T05:36:27;38.95;;;24.60;;
54909;SDS011;63189;51.240;9.964;2024-03-08T05:38:52;40.53;;;24.80;;
54909;SDS011;63189;51.240;9.964;2024-03-08T05:41:19;38.42;;;23.80;;
54909;SDS011;63189;51.240;9.964;2024-03-08T05:43:44;39.92;;;24.77;;
54909;SDS011;63189;51.240;9.964;2024-03-08T05:46:10;39.67;;;24.10;;
54909;SDS011;63189;51.240;9.964;2024-03-08T05:48:36;42.13;;;23.42;;
54909;SDS011;63189;51.240;9.964;2024-03-08T05:51:02;34.05;;;21.25;;
54909;SDS011;63189;51.240;9.964;2024-03-08T05:53:28;41.20;;;24.38;;
54909;SDS011;63189;51.240;9.964;2024-03-08T05:55:57;39.10;;;23.88;;
54909;SDS011;63189;51.240;9.964;2024-03-08T05:58:23;45.13;;;24.75;;
54909;SDS011;63189;51.240;9.964;2024-03-08T06:00:49;38.05;;;23.85;;
54909;SDS011;63189;51.240;9.964;2024-03-08T06:03:15;35.78;;;21.88;;
54909;SDS011;63189;51.240;9.964;2024-03-08T06:05:40;38.67;;;24.65;;
54909;SDS011;63189;51.240;9.964;2024-03-08T06:08:06;34.78;;;22.23;;
54909;SDS011;63189;51.240;9.964;2024-03-08T06:10:32;34.92;;;21.77;;
54909;SDS011;63189;51.240;9.964;2024-03-08T06:12:58;42.33;;;26.58;;
54909;SDS011;63189;51.240;9.964;2024-03-08T06:15:24;34.63;;;22.08;;
54909;SDS011;63189;51.240;9.964;2024-03-08T06:17:50;38.15;;;25.23;;
54909;SDS011;63189;51.240;9.964;2024-03-08T06:20:17;42.05;;;26.63;;
54909;SDS011;63189;51.240;9.964;2024-03-08T06:22:43;39.13;;;24.13;;
54909;SDS011;63189;51.240;9.964;2024-03-08T06:25:09;36.60;;;23.48;;
54909;SDS011;63189;51.240;9.964;2024-03-08T06:27:42;44.38;;;26.67;;
54909;SDS011;63189;51.240;9.964;2024-03-08T06:30:08;38.03;;;23.13;;
54909;SDS011;63189;51.240;9.964;2024-03-08T06:32:34;37.22;;;24.05;;
54909;SDS011;63189;51.240;9.964;2024-03-08T06:35:03;37.58;;;23.05;;
54909;SDS011;63189;51.240;9.964;2024-03-08T06:37:32;37.38;;;21.85;;
54909;SDS011;63189;51.240;9.964;2024-03-08T06:39:58;36.33;;;22.05;;
54909;SDS011;63189;51.240;9.964;2024-03-08T06:42:23;44.55;;;26.20;;
54909;SDS011;63189;51.240;9.964;2024-03-08T06:44:49;39.92;;;24.45;;
54909;SDS011;63189;51.240;9.964;2024-03-08T06:47:17;41.42;;;25.30;;
54909;SDS011;63189;51.240;9.964;2024-03-08T06:49:43;41.38;;;25.23;;
54909;SDS011;63189;51.240;9.964;2024-03-08T06:52:09;45.45;;;27.38;;
54909;SDS011;63189;51.240;9.964;2024-03-08T06:54:35;40.35;;;24.98;;
54909;SDS011;63189;51.240;9.964;2024-03-08T06:57:01;38.28;;;23.95;;
54909;SDS011;63189;51.240;9.964;2024-03-08T06:59:28;38.10;;;23.92;;
54909;SDS011;63189;51.240;9.964;2024-03-08T07:01:53;40.53;;;25.52;;
54909;SDS011;63189;51.240;9.964;2024-03-08T07:04:19;41.58;;;25.80;;
54909;SDS011;63189;51.240;9.964;2024-03-08T07:06:45;40.70;;;24.90;;
54909;SDS011;63189;51.240;9.964;2024-03-08T07:09:10;41.58;;;24.77;;
54909;SDS011;63189;51.240;9.964;2024-03-08T07:11:36;42.85;;;26.58;;
54909;SDS011;63189;51.240;9.964;2024-03-08T07:14:02;41.10;;;24.48;;
54909;SDS011;63189;51.240;9.964;2024-03-08T07:16:30;41.78;;;24.65;;
54909;SDS011;63189;51.240;9.964;2024-03-08T07:18:56;42.08;;;25.90;;
54909;SDS011;63189;51.240;9.964;2024-03-08T07:21:21;60.30;;;33.58;;
54909;SDS011;63189;51.240;9.964;2024-03-08T07:23:47;76.80;;;40.90;;
54909;SDS011;63189;51.240;9.964;2024-03-08T07:26:27;50.60;;;28.70;;
54909;SDS011;63189;51.240;9.964;2024-03-08T07:28:53;45.08;;;26.40;;
54909;SDS011;63189;51.240;9.964;2024-03-08T07:31:22;39.00;;;24.20;;
54909;SDS011;63189;51.240;9.964;2024-03-08T07:34:02;41.10;;;26.38;;
54909;SDS011;63189;51.240;9.964;2024-03-08T07:36:28;39.30;;;23.13;;
54909;SDS011;63189;51.240;9.964;2024-03-08T07:38:53;41.78;;;25.33;;
54909;SDS011;63189;51.240;9.964;2024-03-08T07:41:19;44.58;;;26.05;;
54909;SDS011;63189;51.240;9.964;2024-03-08T07:43:45;42.70;;;25.58;;
54909;SDS011;63189;51.240;9.964;2024-03-08T07:46:10;44.65;;;26.75;;
54909;SDS011;63189;51.240;9.964;2024-03-08T07:48:36;37.75;;;22.98;;
54909;SDS011;63189;51.240;9.964;2024-03-08T07:51:02;46.40;;;29.15;;
54909;SDS011;63189;51.240;9.964;2024-03-08T07:53:28;48.30;;;29.50;;
54909;SDS011;63189;51.240;9.964;2024-03-08T07:55:53;41.80;;;25.10;;
54909;SDS011;63189;51.240;9.964;2024-03-08T07:58:19;42.45;;;25.48;;
54909;SDS011;63189;51.240;9.964;2024-03-08T08:00:44;37.38;;;22.98;;
54909;SDS011;63189;51.240;9.964;2024-03-08T08:03:09;45.80;;;27.10;;
54909;SDS011;63189;51.240;9.964;2024-03-08T08:05:35;35.72;;;23.75;;
54909;SDS011;63189;51.240;9.964;2024-03-08T08:08:02;37.45;;;23.92;;
54909;SDS011;63189;51.240;9.964;2024-03-08T08:10:31;35.13;;;23.48;;
54909;SDS011;63189;51.240;9.964;2024-03-08T08:12:59;43.35;;;26.23;;
54909;SDS011;63189;51.240;9.964;2024-03-08T08:15:25;32.80;;;21.60;;
54909;SDS011;63189;51.240;9.964;2024-03-08T08:17:50;38.05;;;24.60;;
54909;SDS011;63189;51.240;9.964;2024-03-08T08:20:16;35.72;;;22.58;;
54909;SDS011;63189;51.240;9.964;2024-03-08T08:22:43;42.13;;;24.80;;
54909;SDS011;63189;51.240;9.964;2024-03-08T08:25:09;36.42;;;23.58;;
54909;SDS011;63189;51.240;9.964;2024-03-08T08:27:38;34.67;;;22.02;;
54909;SDS011;63189;51.240;9.964;2024-03-08T08:30:04;33.90;;;21.92;;
54909;SDS011;63189;51.240;9.964;2024-03-08T08:32:33;34.10;;;21.02;;
54909;SDS011;63189;51.240;9.964;2024-03-08T08:35:00;33.67;;;20.80;;
54909;SDS011;63189;51.240;9.964;2024-03-08T08:37:25;38.35;;;23.27;;
54909;SDS011;63189;51.240;9.964;2024-03-08T08:39:51;33.15;;;20.85;;
54909;SDS011;63189;51.240;9.964;2024-03-08T08:42:17;33.85;;;21.38;;
54909;SDS011;63189;51.240;9.964;2024-03-08T08:44:43;31.75;;;21.52;;
54909;SDS011;63189;51.240;9.964;2024-03-08T08:47:08;38.30;;;24.55;;
54909;SDS011;63189;51.240;9.964;2024-03-08T08:49:33;31.55;;;21.15;;
54909;SDS011;63189;51.240;9.964;2024-03-08T08:52:00;36.15;;;21.30;;
54909;SDS011;63189;51.240;9.964;2024-03-08T08:54:26;33.67;;;21.83;;
54909;SDS011;63189;51.240;9.964;2024-03-08T08:56:52;35.38;;;23.33;;
54909;SDS011;63189;51.240;9.964;2024-03-08T08:59:18;30.92;;;21.17;;
54909;SDS011;63189;51.240;9.964;2024-03-08T09:01:45;37.72;;;23.20;;
54909;SDS011;63189;51.240;9.964;2024-03-08T09:04:15;34.97;;;23.15;;
54909;SDS011;63189;51.240;9.964;2024-03-08T09:06:41;34.58;;;22.27;;
54909;SDS011;63189;51.240;9.964;2024-03-08T09:09:07;33.78;;;22.30;;
54909;SDS011;63189;51.240;9.964;2024-03-08T09:11:36;35.95;;;22.42;;
54909;SDS011;63189;51.240;9.964;2024-03-08T09:14:06;36.13;;;23.35;;
54909;SDS011;63189;51.240;9.964;2024-03-08T09:16:32;32.22;;;20.85;;
54909;SDS011;63189;51.240;9.964;2024-03-08T09:18:58;29.45;;;19.42;;
54909;SDS011;63189;51.240;9.964;2024-03-08T09:21:23;30.40;;;20.85;;
54909;SDS011;63189;51.240;9.964;2024-03-08T09:23:52;37.00;;;22.88;;
54909;SDS011;63189;51.240;9.964;2024-03-08T09:26:18;34.00;;;22.05;;
54909;SDS011;63189;51.240;9.964;2024-03-08T09:28:44;29.48;;;19.83;;
54909;SDS011;63189;51.240;9.964;2024-03-08T09:31:10;29.48;;;20.52;;
54909;SDS011;63189;51.240;9.964;2024-03-08T09:33:36;33.72;;;22.13;;
54909;SDS011;63189;51.240;9.964;2024-03-08T09:36:02;31.98;;;21.17;;
54909;SDS011;63189;51.240;9.964;2024-03-08T09:38:28;33.85;;;22.27;;
54909;SDS011;63189;51.240;9.964;2024-03-08T09:40:54;31.83;;;20.73;;
54909;SDS011;63189;51.240;9.964;2024-03-08T09:43:22;30.50;;;20.15;;
54909;SDS011;63189;51.240;9.964;2024-03-08T09:45:49;32.38;;;20.65;;
54909;SDS011;63189;51.240;9.964;2024-03-08T09:48:16;30.77;;;20.60;;
54909;SDS011;63189;51.240;9.964;2024-03-08T09:50:44;30.48;;;20.15;;
54909;SDS011;63189;51.240;9.964;2024-03-08T09:53:11;32.47;;;20.08;;
54909;SDS011;63189;51.240;9.964;2024-03-08T09:55:37;33.70;;;21.05;;
54909;SDS011;63189;51.240;9.964;2024-03-08T09:58:06;34.40;;;20.52;;
54909;SDS011;63189;51.240;9.964;2024-03-08T10:00:41;29.45;;;18.90;;
54909;SDS011;63189;51.240;9.964;2024-03-08T10:03:10;33.28;;;20.45;;
54909;SDS011;63189;51.240;9.964;2024-03-08T10:05:36;33.20;;;20.08;;
54909;SDS011;63189;51.240;9.964;2024-03-08T10:08:01;35.70;;;20.55;;
54909;SDS011;63189;51.240;9.964;2024-03-08T10:10:27;33.15;;;20.42;;
54909;SDS011;63189;51.240;9.964;2024-03-08T10:12:52;33.88;;;20.35;;
54909;SDS011;63189;51.240;9.964;2024-03-08T10:15:18;35.83;;;20.17;;
54909;SDS011;63189;51.240;9.964;2024-03-08T10:17:45;32.65;;;19.80;;
54909;SDS011;63189;51.240;9.964;2024-03-08T10:20:14;31.13;;;17.73;;
54909;SDS011;63189;51.240;9.964;2024-03-08T10:22:42;33.53;;;21.38;;
54909;SDS011;63189;51.240;9.964;2024-03-08T10:25:11;33.20;;;20.33;;
54909;SDS011;63189;51.240;9.964;2024-03-08T10:27:40;33.95;;;20.08;;
54909;SDS011;63189;51.240;9.964;2024-03-08T10:30:06;30.00;;;17.90;;
54909;SDS011;63189;51.240;9.964;2024-03-08T10:32:35;32.45;;;20.08;;
54909;SDS011;63189;51.240;9.964;2024-03-08T10:35:00;30.48;;;19.90;;
54909;SDS011;63189;51.240;9.964;2024-03-08T10:37:26;31.42;;;19.33;;
54909;SDS011;63189;51.240;9.964;2024-03-08T10:40:03;28.27;;;18.50;;
54909;SDS011;63189;51.240;9.964;2024-03-08T10:42:41;30.83;;;19.65;;
54909;SDS011;63189;51.240;9.964;2024-03-08T10:45:34;31.58;;;19.67;;
54909;SDS011;63189;51.240;9.964;2024-03-08T10:48:44;34.35;;;19.98;;
54909;SDS011;63189;51.240;9.964;2024-03-08T10:50:53;31.10;;;19.05;;
54909;SDS011;63189;51.240;9.964;2024-03-08T10:53:19;32.45;;;20.70;;
54909;SDS011;63189;51.240;9.964;2024-03-08T10:55:47;34.65;;;21.02;;
54909;SDS011;63189;51.240;9.964;2024-03-08T10:58:14;28.67;;;18.23;;
54909;SDS011;63189;51.240;9.964;2024-03-08T11:00:41;28.02;;;18.02;;
54909;SDS011;63189;51.240;9.964;2024-03-08T11:03:06;31.00;;;19.23;;
54909;SDS011;63189;51.240;9.964;2024-03-08T11:05:39;36.35;;;20.83;;
54909;SDS011;63189;51.240;9.964;2024-03-08T11:10:46;29.45;;;18.85;;
54909;SDS011;63189;51.240;9.964;2024-03-08T11:13:34;30.33;;;17.92;;
54909;SDS011;63189;51.240;9.964;2024-03-08T11:16:07;33.63;;;20.17;;
54909;SDS011;63189;51.240;9.964;2024-03-08T11:18:35;30.05;;;18.17;;
54909;SDS011;63189;51.240;9.964;2024-03-08T11:21:03;27.55;;;16.98;;
54909;SDS011;63189;51.240;9.964;2024-03-08T11:23:37;32.08;;;18.60;;
54909;SDS011;63189;51.240;9.964;2024-03-08T11:26:13;31.48;;;18.10;;
54909;SDS011;63189;51.240;9.964;2024-03-08T11:28:43;29.58;;;18.65;;
54909;SDS011;63189;51.240;9.964;2024-03-08T11:33:36;36.53;;;21.60;;
54909;SDS011;63189;51.240;9.964;2024-03-08T11:36:21;32.08;;;20.15;;
54909;SDS011;63189;51.240;9.964;2024-03-08T11:38:49;29.10;;;18.58;;
54909;SDS011;63189;51.240;9.964;2024-03-08T11:41:21;34.10;;;19.55;;
54909;SDS011;63189;51.240;9.964;2024-03-08T11:43:48;32.10;;;19.25;;
54909;SDS011;63189;51.240;9.964;2024-03-08T11:46:15;30.10;;;19.27;;
54909;SDS011;63189;51.240;9.964;2024-03-08T11:48:42;30.13;;;18.60;;
54909;SDS011;63189;51.240;9.964;2024-03-08T11:51:09;26.75;;;16.15;;
54909;SDS011;63189;51.240;9.964;2024-03-08T11:53:38;33.03;;;18.75;;
54909;SDS011;63189;51.240;9.964;2024-03-08T11:56:10;31.63;;;18.88;;
54909;SDS011;63189;51.240;9.964;2024-03-08T11:58:40;31.03;;;19.80;;
54909;SDS011;63189;51.240;9.964;2024-03-08T12:01:09;31.58;;;19.33;;
54909;SDS011;63189;51.240;9.964;2024-03-08T12:03:39;39.90;;;22.23;;
54909;SDS011;63189;51.240;9.964;2024-03-08T12:06:05;26.98;;;16.92;;
54909;SDS011;63189;51.240;9.964;2024-03-08T12:08:30;31.77;;;19.27;;
54909;SDS011;63189;51.240;9.964;2024-03-08T12:10:57;30.95;;;18.65;;
54909;SDS011;63189;51.240;9.964;2024-03-08T12:13:29;27.45;;;17.52;;
54909;SDS011;63189;51.240;9.964;2024-03-08T12:15:57;31.05;;;19.80;;
54909;SDS011;63189;51.240;9.964;2024-03-08T12:18:26;31.05;;;18.02;;
54909;SDS011;63189;51.240;9.964;2024-03-08T12:21:03;33.65;;;19.83;;
54909;SDS011;63189;51.240;9.964;2024-03-08T12:24:01;31.23;;;19.05;;
54909;SDS011;63189;51.240;9.964;2024-03-08T12:26:34;27.02;;;17.05;;
54909;SDS011;63189;51.240;9.964;2024-03-08T12:31:53;23.65;;;14.63;;
54909;SDS011;63189;51.240;9.964;2024-03-08T12:34:20;25.20;;;14.95;;
54909;SDS011;63189;51.240;9.964;2024-03-08T12:36:49;25.27;;;16.67;;
54909;SDS011;63189;51.240;9.964;2024-03-08T12:39:18;32.28;;;18.20;;
54909;SDS011;63189;51.240;9.964;2024-03-08T12:41:47;24.20;;;15.57;;
54909;SDS011;63189;51.240;9.964;2024-03-08T12:44:14;28.02;;;15.88;;
54909;SDS011;63189;51.240;9.964;2024-03-08T12:46:39;30.70;;;18.02;;
54909;SDS011;63189;51.240;9.964;2024-03-08T12:49:08;30.80;;;19.83;;
54909;SDS011;63189;51.240;9.964;2024-03-08T12:51:37;28.40;;;17.75;;
54909;SDS011;63189;51.240;9.964;2024-03-08T12:54:03;26.75;;;17.27;;
54909;SDS011;63189;51.240;9.964;2024-03-08T12:56:32;33.75;;;19.63;;
54909;SDS011;63189;51.240;9.964;2024-03-08T12:59:02;25.27;;;16.35;;
54909;SDS011;63189;51.240;9.964;2024-03-08T13:01:28;29.50;;;18.17;;
54909;SDS011;63189;51.240;9.964;2024-03-08T13:03:54;27.98;;;17.63;;
54909;SDS011;63189;51.240;9.964;2024-03-08T13:06:20;30.23;;;17.88;;
54909;SDS011;63189;51.240;9.964;2024-03-08T13:08:52;32.60;;;19.73;;
54909;SDS011;63189;51.240;9.964;2024-03-08T13:11:22;33.38;;;21.27;;
54909;SDS011;63189;51.240;9.964;2024-03-08T13:13:53;31.20;;;18.05;;
54909;SDS011;63189;51.240;9.964;2024-03-08T13:16:18;30.05;;;18.65;;
54909;SDS011;63189;51.240;9.964;2024-03-08T13:18:44;25.10;;;15.85;;
54909;SDS011;63189;51.240;9.964;2024-03-08T13:21:13;25.13;;;16.55;;
54909;SDS011;63189;51.240;9.964;2024-03-08T13:23:40;31.23;;;18.23;;
54909;SDS011;63189;51.240;9.964;2024-03-08T13:26:10;34.33;;;20.08;;
54909;SDS011;63189;51.240;9.964;2024-03-08T13:28:43;34.25;;;20.90;;
54909;SDS011;63189;51.240;9.964;2024-03-08T13:31:13;29.30;;;18.75;;
54909;SDS011;63189;51.240;9.964;2024-03-08T13:33:40;30.42;;;18.63;;
54909;SDS011;63189;51.240;9.964;2024-03-08T13:36:08;28.40;;;16.92;;
54909;SDS011;63189;51.240;9.964;2024-03-08T13:38:41;32.80;;;19.80;;
54909;SDS011;63189;51.240;9.964;2024-03-08T13:41:10;34.80;;;22.20;;
54909;SDS011;63189;51.240;9.964;2024-03-08T13:43:37;27.10;;;18.50;;
54909;SDS011;63189;51.240;9.964;2024-03-08T13:46:04;34.08;;;19.67;;
54909;SDS011;63189;51.240;9.964;2024-03-08T13:48:29;30.23;;;19.20;;
54909;SDS011;63189;51.240;9.964;2024-03-08T13:50:56;29.38;;;19.48;;
54909;SDS011;63189;51.240;9.964;2024-03-08T13:53:22;35.45;;;20.98;;
54909;SDS011;63189;51.240;9.964;2024-03-08T13:55:49;32.00;;;20.10;;
54909;SDS011;63189;51.240;9.964;2024-03-08T13:58:15;32.28;;;18.58;;
54909;SDS011;63189;51.240;9.964;2024-03-08T14:00:42;31.83;;;17.77;;
54909;SDS011;63189;51.240;9.964;2024-03-08T14:03:13;32.20;;;20.15;;
54909;SDS011;63189;51.240;9.964;2024-03-08T14:05:40;30.10;;;18.90;;
54909;SDS011;63189;51.240;9.964;2024-03-08T14:08:08;32.53;;;20.50;;
54909;SDS011;63189;51.240;9.964;2024-03-08T14:10:34;36.42;;;21.85;;
54909;SDS011;63189;51.240;9.964;2024-03-08T14:13:02;28.05;;;17.98;;
54909;SDS011;63189;51.240;9.964;2024-03-08T14:15:32;33.55;;;17.75;;
54909;SDS011;63189;51.240;9.964;2024-03-08T14:18:07;30.83;;;18.48;;
54909;SDS011;63189;51.240;9.964;2024-03-08T14:20:34;26.02;;;18.20;;
54909;SDS011;63189;51.240;9.964;2024-03-08T14:23:00;30.17;;;18.42;;
54909;SDS011;63189;51.240;9.964;2024-03-08T14:25:25;31.42;;;20.52;;
54909;SDS011;63189;51.240;9.964;2024-03-08T14:27:51;28.77;;;19.50;;
54909;SDS011;63189;51.240;9.964;2024-03-08T14:30:28;29.48;;;19.60;;
54909;SDS011;63189;51.240;9.964;2024-03-08T14:33:03;30.40;;;19.60;;